METAR Data
IDs: Format: Raw Decoded Include TAF

Data at: 2018 UTC 19 May 2019

KMUT 192015Z AUTO 28016G24KT 10SM SCT020 SCT028 OVC039 19/15 A2971 RMK AO2
KMUT 191955Z AUTO 29017G22KT 10SM BKN019 BKN025 OVC035 18/14 A2971 RMK AO2
KMUT 191935Z AUTO 28014G20KT 10SM FEW015 SCT020 BKN025 18/15 A2970 RMK AO2
KMUT 191915Z AUTO 30013KT 10SM SCT025 BKN033 OVC055 18/16 A2968 RMK AO2
KMUT 191855Z AUTO 30014KT 7SM SCT025 BKN034 OVC060 18/15 A2968 RMK AO2
KMUT 191835Z AUTO 30012KT 10SM SCT023 BKN027 OVC065 19/15 A2966 RMK AO2
KMUT 191815Z AUTO 30012KT 10SM SCT022 BKN028 BKN032 20/15 A2966 RMK AO2
KMUT 191755Z AUTO 30015G21KT 10SM FEW017 BKN022 OVC055 20/15 A2966 RMK AO2
KMUT 191735Z AUTO 28012KT 10SM BKN016 BKN025 BKN060 19/15 A2965 RMK AO2
KMUT 191715Z AUTO 28010G17KT 10SM SCT014 BKN019 BKN025 18/16 A2965 RMK AO2
KMUT 191655Z AUTO 28012G19KT 3SM -RA BKN016 BKN021 OVC033 17/15 A2964 RMK AO2
KMUT 191635Z AUTO 27015KT 10SM BKN016 BKN023 OVC031 19/15 A2963 RMK AO2
KMUT 191615Z AUTO 26013KT 10SM BKN016 BKN021 OVC028 18/15 A2962 RMK AO2
KMUT 191555Z AUTO 28012KT 10SM BKN013 OVC019 18/15 A2961 RMK AO2
KMUT 191535Z AUTO 27011KT 10SM SCT012 OVC019 17/16 A2960 RMK AO2
KMUT 191515Z AUTO 22006KT 10SM FEW013 SCT019 BKN065 17/16 A2960 RMK AO2
KMUT 191455Z AUTO 23009KT 10SM BKN019 BKN027 OVC075 16/15 A2960 RMK AO2
KMUT 191435Z AUTO 21009KT 9SM SCT020 BKN028 OVC095 15/14 A2959 RMK AO2
KMUT 191415Z AUTO 22008G17KT 1 1/2SM -RA FEW004 SCT014 OVC028 15/14 A2958 RMK AO2
KMUT 191355Z AUTO 25016G22KT 7SM -RA BKN013 BKN019 OVC050 17/13 A2958 RMK AO2
KMUT 191335Z AUTO 18011KT 10SM BKN011 OVC018 18/17 A2955 RMK AO2
KMUT 191315Z AUTO 18011KT 10SM BKN011 BKN037 OVC095 18/17 A2955 RMK AO2
KMUT 191255Z AUTO 19009KT 10SM BKN010 OVC039 18/17 A2955 RMK AO2
KMUT 191235Z AUTO 17009G14KT 10SM BKN011 OVC016 18/16 A2955 RMK AO2
KMUT 191215Z AUTO 17007KT 10SM SCT010 BKN014 OVC018 18/17 A2956 RMK AO2
KMUT 191155Z AUTO 18008KT 10SM BKN012 OVC018 18/16 A2956 RMK AO2
KMUT 191135Z AUTO 19008KT 10SM BKN013 OVC017 18/17 A2956 RMK AO2
KMUT 191115Z AUTO 18010KT 10SM BKN015 OVC022 18/16 A2955 RMK AO2
KMUT 191055Z AUTO 18008KT 10SM BKN020 BKN039 OVC110 18/16 A2956 RMK AO2
KMUT 191035Z AUTO 20005G11KT 8SM BKN018 BKN034 OVC042 18/16 A2955 RMK AO2
KMUT 191015Z AUTO 19010KT 10SM BKN018 BKN038 OVC045 18/16 A2956 RMK AO2
KMUT 190955Z AUTO 19009KT 10SM FEW017 OVC042 18/16 A2955 RMK AO2
KMUT 190935Z AUTO 19010KT 10SM SCT017 BKN035 BKN110 18/16 A2956 RMK AO2
KMUT 190915Z AUTO 19010KT 10SM SCT017 SCT023 OVC033 18/16 A2956 RMK AO2
KMUT 190855Z AUTO 19009KT 10SM BKN020 OVC026 18/17 A2956 RMK AO2
KMUT 190835Z AUTO 20010KT 10SM FEW013 BKN022 OVC028 18/17 A2955 RMK AO2
KMUT 190815Z AUTO 20009KT 10SM BKN013 OVC019 18/17 A2956 RMK AO2
KMUT 190755Z AUTO 18010G17KT 10SM OVC014 18/17 A2955 RMK AO2
KMUT 190735Z AUTO 19011KT 10SM OVC015 18/17 A2955 RMK AO2
KMUT 190715Z AUTO 20012KT 10SM OVC014 19/17 A2956 RMK AO2
KMUT 190655Z AUTO 20014G20KT 10SM OVC014 19/17 A2955 RMK AO2
KMUT 190635Z AUTO 21012G20KT 10SM BKN015 19/17 A2956 RMK AO2
KMUT 190615Z AUTO 21011G19KT 10SM CLR 19/17 A2956 RMK AO2
KMUT 190555Z AUTO 20014G19KT 10SM CLR 19/17 A2956 RMK AO2
KMUT 190535Z AUTO 19012G19KT 10SM CLR 19/17 A2955 RMK AO2
KMUT 190515Z AUTO 18011G16KT 10SM SCT095 19/17 A2955 RMK AO2
KMUT 190455Z AUTO 15011KT 10SM OVC100 19/18 A2955 RMK AO2
KMUT 190435Z AUTO 15009G15KT 10SM OVC100 19/18 A2955 RMK AO2
KMUT 190415Z AUTO 14006KT 10SM OVC095 19/18 A2955 RMK AO2
KMUT 190355Z AUTO 16008KT 10SM BKN100 BKN120 20/18 A2957 RMK AO2
KMUT 190335Z AUTO 14007KT 10SM FEW065 SCT090 BKN120 20/19 A2957 RMK AO2
KMUT 190315Z AUTO 14007KT 10SM FEW031 BKN075 OVC120 20/19 A2959 RMK AO2
KMUT 190255Z AUTO 18007KT 4SM -RA BKN031 BKN060 OVC110 20/19 A2961 RMK AO2
KMUT 190235Z AUTO 19016G25KT 3SM -RA FEW029 SCT036 BKN065 20/19 A2963 RMK AO2
KMUT 190215Z AUTO 15008KT 10SM SCT065 BKN080 OVC100 20/19 A2959 RMK AO2
KMUT 190155Z AUTO 13006KT 10SM BKN075 BKN085 BKN120 20/19 A2958 RMK AO2
KMUT 190135Z AUTO 14003KT 10SM SCT070 BKN120 19/19 A2960 RMK AO2
KMUT 190115Z AUTO 11003KT 10SM SCT075 BKN110 19/18 A2960 RMK AO2
KMUT 190055Z AUTO 00000KT 10SM BKN080 OVC100 19/18 A2961 RMK AO2
KMUT 190035Z AUTO 00000KT 10SM OVC095 19/18 A2961 RMK AO2
KMUT 190015Z AUTO 09004KT 10SM FEW055 FEW070 OVC095 19/18 A2960 RMK AO2
KMUT 182355Z AUTO 00000KT 8SM RA FEW036 BKN055 OVC090 19/17 A2961 RMK AO2
KMUT 182335Z AUTO VRB04G12KT 2SM -RA SCT032 BKN055 OVC080 19/18 A2963 RMK AO2 VIS 1V5
KMUT 182315Z AUTO 19009KT 5SM -RA FEW028 BKN041 OVC100 20/19 A2965 RMK AO2
KMUT 182255Z AUTO 19005KT 4SM -RA FEW024 BKN035 OVC110 20/19 A2966 RMK AO2
KMUT 182235Z AUTO 18009G16KT 3SM -RA FEW028 SCT047 BKN075 20/19 A2966 RMK AO2
KMUT 182215Z AUTO 17011G18KT 8SM FEW019 FEW049 BKN080 21/19 A2968 RMK AO2
KMUT 182155Z AUTO 17012G17KT 10SM FEW020 FEW028 SCT055 22/19 A2966 RMK AO2
KMUT 182135Z AUTO 18016G21KT 10SM FEW019 SCT023 BKN055 23/19 A2968 RMK AO2
KMUT 182115Z AUTO 17014G20KT 10SM BKN022 BKN027 23/20 A2968 RMK AO2
KMUT 182055Z AUTO 17015KT 10SM BKN021 24/20 A2967 RMK AO2
KMUT 182035Z AUTO 16010G16KT 10SM BKN019 BKN023 23/20 A2968 RMK AO2
KMUT 182015Z AUTO 17011KT 10SM SCT017 BKN021 22/19 A2968 RMK AO2
KMUT 181955Z AUTO 16011G17KT 10SM BKN017 BKN021 22/19 A2968 RMK AO2
KMUT 181935Z AUTO 15013KT 10SM OVC015 21/19 A2969 RMK AO2
KMUT 181915Z AUTO 17013G19KT 10SM BKN014 OVC018 21/19 A2969 RMK AO2
KMUT 181855Z AUTO 16015KT 10SM SCT013 23/19 A2966 RMK AO2
KMUT 181835Z AUTO 16012KT 10SM CLR 22/19 A2966 RMK AO2
KMUT 181815Z AUTO 17011G16KT 10SM CLR 21/19 A2966 RMK AO2
KMUT 181755Z AUTO 15010KT 10SM CLR 21/19 A2967 RMK AO2
KMUT 181735Z AUTO 16010G15KT 10SM FEW013 FEW040 20/19 A2970 RMK AO2
KMUT 181715Z AUTO 17010G18KT 10SM CLR 20/19 A2971 RMK AO2
KMUT 181655Z AUTO 13010KT 10SM CLR 20/19 A2969 RMK AO2
KMUT 181635Z AUTO 14007KT 10SM CLR 19/19 A2970 RMK AO2
KMUT 181615Z AUTO 12010KT 5SM -DZ FEW041 FEW050 FEW075 18/18 A2970 RMK AO2
KMUT 181555Z AUTO 11005KT 2 1/2SM -RA SCT044 BKN049 18/17 A2973 RMK AO2
KMUT 181535Z AUTO 11003KT 2SM -RA SCT025 SCT030 BKN042 17/17 A2974 RMK AO2
KMUT 181515Z AUTO 00000KT 2 1/2SM -RA BKN025 BKN032 17/17 A2976 RMK AO2
KMUT 181455Z AUTO 00000KT 3SM BR SCT033 BKN043 BKN049 17/16 A2975 RMK AO2
KMUT 181435Z AUTO 00000KT 3SM BR FEW015 FEW027 OVC043 16/16 A2975 RMK AO2
KMUT 181415Z AUTO 14004KT 1 1/2SM -RA SCT003 BKN018 OVC040 16/16 A2976 RMK AO2
KMUT 181355Z AUTO 27008G16KT 1/4SM +RA BKN003 BKN017 OVC027 16/15 A2976 RMK AO2
KMUT 181335Z AUTO 00000KT 10SM FEW041 BKN047 OVC065 17/15 A2973 RMK AO2
KMUT 181315Z AUTO 12005KT 10SM BKN060 OVC070 17/14 A2971 RMK AO2
KMUT 181255Z AUTO 12006KT 10SM BKN060 BKN070 16/13 A2971 RMK AO2
KMUT 181235Z AUTO 00000KT 10SM BKN065 14/12 A2973 RMK AO2
KMUT 181215Z AUTO 00000KT 10SM SCT060 SCT075 14/11 A2974 RMK AO2
KMUT 181155Z AUTO 00000KT 10SM FEW075 12/10 A2975 RMK AO2
KMUT 181135Z AUTO 00000KT 9SM CLR 11/10 A2976 RMK AO2
KMUT 181115Z AUTO 00000KT 10SM CLR 11/10 A2977 RMK AO2
KMUT 181055Z AUTO 00000KT 10SM CLR 10/09 A2977 RMK AO2
KMUT 181035Z AUTO 07004KT 10SM CLR 10/09 A2978 RMK AO2
KMUT 181015Z AUTO 08004KT 10SM CLR 10/09 A2978 RMK AO2
KMUT 180955Z AUTO 08003KT 10SM CLR 10/09 A2978 RMK AO2
KMUT 180935Z AUTO 09004KT 10SM CLR 10/09 A2978 RMK AO2
KMUT 180915Z AUTO 08005KT 10SM CLR 10/09 A2977 RMK AO2
KMUT 180855Z AUTO 08004KT 10SM CLR 11/09 A2978 RMK AO2
KMUT 180835Z AUTO 08006KT 10SM SCT070 11/09 A2979 RMK AO2